Decoded Metar for LFSN (NANCY ESSEY in FRANCE) (IATA:ENC) | Meteo·Mobile Aviation Weather
aviador You're here:

LFSN Decoded Metar

NANCY ESSEY in FRANCE
Report Time2018-10-18 15:00:00
UTC Time2018-10-18 15:30:39
Flight Rules vfr VFR
Wind030° at 13 kt
W.Decomp.*RWY 03: 13.0 kt HW -0 kt LCW
W.Rank030° ranks 16
Current wind is above 030° avg. (5.6)
Visibility9999 m
Phenomena:N/A
Clouds:N/A
Expected CloudBase > 4,800 ft AGL from Temp-Dew spread
CeilingNone
Temp22°C (ISA +8)
Dew Point10°C (47% RH)
AAT17.4°C
QNH1019 hPa
Density Alt1,657 ft
Elevation712 ft
Report Wrong Elevation
Raw Report
LFSN 181500Z AUTO 03013KT CAVOK 22/10 Q1019=

Extra information for LFSN:More info

Metar Taf Metar & Taf Last 4 Metars F.Rules Stats Wind Profile Meteogram Temp Stats Airport Information Weather charts Add Link Nearby VenuesMetar ALERT Operation Metar Decoded Social comments